Time;durP1;ratioP1;P1;durP2;ratioP2;P2;SDS_P1;SDS_P2;PMS_P1;PMS_P2;Temp;Humidity;BMP_temperature;BMP_pressure;BME280_temperature;BME280_humidity;BME280_pressure;Samples;Min_cycle;Max_cycle;Signal;HPM_P1;HPM_P2
2021/03/21 00:00:36;;;;;;;20.53;12.70;;;6.10;99.90;;;;;;5010516;28;20669;-70
2021/03/21 00:03:04;;;;;;;19.27;12.87;;;6.10;99.90;;;;;;5008087;28;20190;-69
2021/03/21 00:05:31;;;;;;;22.33;13.30;;;6.10;99.90;;;;;;5009517;28;20681;-69
2021/03/21 00:08:01;;;;;;;17.57;12.53;;;6.10;99.90;;;;;;5004245;28;20557;-70
2021/03/21 00:10:30;;;;;;;18.60;12.03;;;6.10;99.90;;;;;;5010142;28;20280;-69
2021/03/21 00:12:59;;;;;;;20.37;12.33;;;6.10;99.90;;;;;;5007420;28;20198;-70
2021/03/21 00:15:28;;;;;;;21.13;12.77;;;6.00;99.90;;;;;;5010339;28;20208;-69
2021/03/21 00:17:57;;;;;;;16.77;11.63;;;6.00;99.90;;;;;;5008729;28;20217;-69
2021/03/21 00:20:28;;;;;;;19.70;12.77;;;6.00;99.90;;;;;;5007390;28;20198;-69
2021/03/21 00:22:55;;;;;;;33.80;13.57;;;6.10;99.90;;;;;;5008156;28;20249;-69
2021/03/21 00:25:25;;;;;;;21.37;13.40;;;6.10;99.90;;;;;;5009446;28;20187;-69
2021/03/21 00:27:53;;;;;;;19.87;13.27;;;6.10;99.90;;;;;;5020435;28;20819;-69
2021/03/21 00:30:23;;;;;;;24.07;13.40;;;6.10;99.90;;;;;;5012040;28;20198;-68
2021/03/21 00:32:51;;;;;;;22.40;13.37;;;6.10;99.90;;;;;;5006377;28;20245;-70
2021/03/21 00:35:20;;;;;;;23.30;14.10;;;6.10;99.90;;;;;;5009957;28;20191;-70
2021/03/21 00:37:48;;;;;;;23.37;13.60;;;6.10;99.90;;;;;;5007649;28;20202;-69
2021/03/21 00:40:20;;;;;;;23.87;13.40;;;6.10;99.90;;;;;;5006076;28;20229;-67
2021/03/21 00:42:48;;;;;;;23.13;13.33;;;6.20;99.90;;;;;;5007964;28;20233;-70
2021/03/21 00:45:16;;;;;;;24.23;14.00;;;6.20;99.90;;;;;;5009823;28;20205;-70
2021/03/21 00:47:44;;;;;;;25.07;14.73;;;6.20;99.90;;;;;;5008554;28;20277;-69
2021/03/21 00:50:16;;;;;;;24.60;14.00;;;6.20;99.90;;;;;;5010289;28;20197;-69
2021/03/21 00:52:43;;;;;;;26.60;15.30;;;6.20;99.90;;;;;;5009141;28;20202;-69
2021/03/21 00:55:13;;;;;;;26.33;15.43;;;6.20;99.90;;;;;;5009285;28;20221;-70
2021/03/21 00:57:41;;;;;;;28.20;15.87;;;6.20;99.90;;;;;;5008709;28;20190;-69
2021/03/21 01:00:12;;;;;;;27.80;15.10;;;6.20;99.90;;;;;;5007576;28;20198;-69
2021/03/21 01:02:39;;;;;;;27.80;15.70;;;6.20;99.90;;;;;;5005648;28;20193;-68
2021/03/21 01:05:12;;;;;;;27.37;16.10;;;6.20;99.90;;;;;;5009884;28;20198;-70
2021/03/21 01:07:40;;;;;;;31.27;16.20;;;6.20;99.90;;;;;;5009194;28;20256;-69
2021/03/21 01:10:08;;;;;;;30.97;16.10;;;6.20;99.90;;;;;;5006266;28;20549;-69
2021/03/21 01:12:35;;;;;;;29.43;16.20;;;6.20;99.90;;;;;;5009250;28;20201;-70
2021/03/21 01:15:04;;;;;;;28.43;16.60;;;6.20;99.90;;;;;;5006699;28;20202;-69
2021/03/21 01:17:31;;;;;;;34.30;16.70;;;6.20;99.90;;;;;;5008488;28;20225;-69
2021/03/21 01:19:58;;;;;;;33.57;17.93;;;6.20;99.90;;;;;;5008649;28;20194;-69
2021/03/21 01:22:27;;;;;;;33.13;16.47;;;6.20;99.90;;;;;;5007856;28;20198;-69
2021/03/21 01:24:54;;;;;;;35.90;16.97;;;6.20;99.90;;;;;;5008798;28;20194;-69
2021/03/21 01:27:22;;;;;;;34.57;17.23;;;6.30;99.90;;;;;;5025150;28;20190;-69
2021/03/21 01:29:49;;;;;;;29.93;17.23;;;6.30;99.90;;;;;;5008049;28;20226;-69
2021/03/21 01:32:17;;;;;;;31.97;16.70;;;6.30;99.90;;;;;;5008565;28;20248;-70
2021/03/21 01:34:44;;;;;;;31.27;16.83;;;6.30;99.90;;;;;;5008957;28;20669;-69
2021/03/21 01:37:11;;;;;;;33.67;17.90;;;6.30;99.90;;;;;;5010218;28;20244;-68
2021/03/21 01:39:40;;;;;;;34.23;18.00;;;6.30;99.90;;;;;;5008025;28;20249;-69
2021/03/21 01:42:10;;;;;;;35.47;18.13;;;6.30;99.90;;;;;;5009546;28;20202;-70
2021/03/21 01:44:38;;;;;;;32.37;17.20;;;6.30;99.90;;;;;;5009349;28;20244;-70
2021/03/21 01:47:21;;;;;;;35.63;18.73;;;6.30;99.90;;;;;;5008258;28;20615;-70
2021/03/21 01:49:50;;;;;;;37.73;18.53;;;6.30;99.90;;;;;;5008359;28;20723;-70
2021/03/21 01:52:30;;;;;;;34.57;18.70;;;6.30;99.90;;;;;;5005589;28;20351;-69
2021/03/21 01:55:00;;;;;;;36.20;18.17;;;6.30;99.90;;;;;;5002477;28;20249;-70
2021/03/21 01:57:28;;;;;;;45.13;19.27;;;6.30;99.90;;;;;;5008854;28;20194;-67
2021/03/21 01:59:56;;;;;;;35.53;18.40;;;6.30;99.90;;;;;;5024116;28;20677;-69
2021/03/21 02:02:24;;;;;;;35.53;18.37;;;6.30;99.90;;;;;;5005887;28;20252;-69
2021/03/21 02:04:52;;;;;;;38.07;18.97;;;6.30;99.90;;;;;;5007286;28;20194;-69
2021/03/21 02:07:44;;;;;;;41.53;19.13;;;6.40;99.90;;;;;;5008069;28;20226;-69
2021/03/21 02:10:24;;;;;;;41.53;18.60;;;6.40;99.90;;;;;;5020677;28;20289;-69
2021/03/21 02:13:01;;;;;;;36.67;19.13;;;6.40;99.90;;;;;;5007852;28;20667;-69
2021/03/21 02:15:37;;;;;;;41.60;19.60;;;6.40;99.90;;;;;;5007980;28;20312;-69
2021/03/21 02:18:12;;;;;;;42.00;19.90;;;6.40;99.90;;;;;;5022108;28;20198;-70
2021/03/21 02:21:10;;;;;;;39.17;19.67;;;6.40;99.90;;;;;;5008362;28;20260;-69
2021/03/21 02:23:58;;;;;;;41.77;19.70;;;6.40;99.90;;;;;;4992453;28;20202;-70
2021/03/21 02:29:38;;;;;;;39.90;20.73;;;6.40;99.90;;;;;;4913396;29;20236;-60
2021/03/21 02:32:10;;;;;;;39.40;20.57;;;6.40;99.90;;;;;;4918893;29;20189;-60
2021/03/21 02:34:47;;;;;;;41.00;21.27;;;6.40;99.90;;;;;;4918625;29;20675;-60
2021/03/21 02:37:19;;;;;;;43.23;20.00;;;6.40;99.90;;;;;;4916414;29;20261;-60
2021/03/21 02:39:53;;;;;;;42.63;21.17;;;6.40;99.90;;;;;;4921713;29;20285;-60
2021/03/21 02:42:27;;;;;;;37.27;19.57;;;6.40;99.90;;;;;;4925792;29;20200;-60
2021/03/21 02:45:01;;;;;;;40.97;20.90;;;6.40;99.90;;;;;;4920216;29;20204;-59
2021/03/21 02:47:31;;;;;;;42.87;21.23;;;6.50;99.90;;;;;;4916945;29;20208;-60
2021/03/21 02:50:01;;;;;;;42.37;21.20;;;6.40;99.90;;;;;;4913918;29;20228;-60
2021/03/21 02:52:34;;;;;;;40.00;21.07;;;6.40;99.90;;;;;;4919033;29;20197;-61
2021/03/21 02:55:10;;;;;;;41.73;21.67;;;6.40;99.90;;;;;;4911284;29;20224;-60
2021/03/21 02:57:43;;;;;;;43.83;21.83;;;6.40;99.90;;;;;;4923135;29;20537;-61
2021/03/21 03:00:14;;;;;;;42.20;22.10;;;6.40;99.90;;;;;;4914689;29;20189;-61
2021/03/21 03:02:47;;;;;;;41.83;21.57;;;6.40;99.90;;;;;;4915981;29;20292;-61
2021/03/21 03:05:24;;;;;;;46.37;21.93;;;6.50;99.90;;;;;;4913954;29;20563;-60
2021/03/21 03:07:56;;;;;;;46.43;22.47;;;6.50;99.90;;;;;;4921644;29;20598;-60
2021/03/21 03:10:30;;;;;;;49.07;23.03;;;6.50;99.90;;;;;;4917502;29;20232;-60
2021/03/21 03:13:05;;;;;;;46.17;22.87;;;6.50;99.90;;;;;;4913403;29;20194;-60
2021/03/21 03:15:34;;;;;;;47.77;23.03;;;6.50;99.90;;;;;;4912384;29;20320;-60
2021/03/21 03:18:11;;;;;;;48.73;24.03;;;6.50;99.90;;;;;;4913616;29;20221;-60
2021/03/21 03:20:43;;;;;;;46.70;23.00;;;6.50;99.90;;;;;;4920561;29;20295;-60
2021/03/21 03:23:20;;;;;;;49.50;23.00;;;6.50;99.90;;;;;;4917122;29;20201;-60
2021/03/21 03:25:53;;;;;;;47.50;22.93;;;6.50;99.90;;;;;;4917844;29;20213;-60
2021/03/21 03:28:30;;;;;;;51.37;24.67;;;6.60;99.90;;;;;;4917697;29;20319;-60
2021/03/21 03:31:08;;;;;;;53.93;24.73;;;6.60;99.90;;;;;;4919642;29;20671;-61
2021/03/21 03:33:37;;;;;;;50.13;23.60;;;6.60;99.90;;;;;;4914931;29;20319;-60
2021/03/21 03:36:07;;;;;;;51.77;24.23;;;6.60;99.90;;;;;;4910712;29;20318;-60
2021/03/21 03:38:35;;;;;;;51.70;25.07;;;6.60;99.90;;;;;;4929968;29;20321;-60
2021/03/21 03:41:07;;;;;;;51.07;23.73;;;6.60;99.90;;;;;;4929966;29;20300;-61
2021/03/21 03:43:43;;;;;;;55.90;24.70;;;6.60;99.90;;;;;;4915563;29;20649;-60
2021/03/21 03:46:17;;;;;;;57.17;25.63;;;6.60;99.90;;;;;;4928225;29;20292;-61
2021/03/21 03:48:54;;;;;;;56.37;24.47;;;6.60;99.90;;;;;;4914430;29;20593;-61
2021/03/21 03:51:29;;;;;;;51.77;25.13;;;6.60;99.90;;;;;;4911545;29;20197;-60
2021/03/21 03:54:14;;;;;;;60.83;25.27;;;6.70;99.90;;;;;;4916602;29;20217;-60
2021/03/21 03:56:48;;;;;;;51.23;24.83;;;6.70;99.90;;;;;;4911368;29;20735;-60
2021/03/21 03:59:49;;;;;;;56.87;25.17;;;6.70;99.90;;;;;;4917289;29;20278;-61
2021/03/21 04:02:23;;;;;;;53.60;24.13;;;6.80;99.90;;;;;;4905489;29;20236;-60
2021/03/21 04:04:58;;;;;;;55.70;25.23;;;6.80;99.90;;;;;;4919154;29;20189;-60
2021/03/21 04:07:37;;;;;;;57.30;26.23;;;6.70;99.90;;;;;;4924744;29;20196;-61
2021/03/21 04:10:10;;;;;;;59.57;26.20;;;6.80;99.90;;;;;;4918027;29;20205;-60
2021/03/21 04:12:44;;;;;;;56.17;25.40;;;6.80;99.90;;;;;;4920701;29;20216;-60
2021/03/21 04:15:16;;;;;;;54.03;24.87;;;6.80;99.90;;;;;;4911348;29;20297;-61
2021/03/21 04:17:48;;;;;;;57.63;26.87;;;6.80;99.90;;;;;;4911986;29;20194;-60
2021/03/21 04:20:21;;;;;;;51.70;24.73;;;6.80;99.90;;;;;;4917789;29;20207;-61
2021/03/21 04:22:51;;;;;;;53.67;26.43;;;6.80;99.90;;;;;;4910974;29;20649;-60
2021/03/21 04:25:28;;;;;;;51.20;24.97;;;6.80;99.90;;;;;;4924274;29;20197;-61
2021/03/21 04:28:01;;;;;;;55.47;25.33;;;6.80;99.90;;;;;;4913191;29;20229;-60
2021/03/21 04:30:32;;;;;;;57.50;26.77;;;6.80;99.90;;;;;;4918119;29;20264;-60
2021/03/21 04:33:05;;;;;;;56.37;26.07;;;6.80;99.90;;;;;;4916123;29;20208;-60
2021/03/21 04:35:38;;;;;;;61.43;27.20;;;6.90;99.90;;;;;;4920073;29;20221;-60
2021/03/21 04:38:14;;;;;;;58.37;26.00;;;6.90;99.90;;;;;;4921792;29;20608;-61
2021/03/21 04:40:43;;;;;;;55.47;26.07;;;6.90;99.90;;;;;;4916969;29;20232;-60
2021/03/21 04:43:15;;;;;;;60.23;26.83;;;6.90;99.90;;;;;;4915592;29;20273;-61
2021/03/21 04:45:47;;;;;;;54.97;26.20;;;7.00;99.90;;;;;;4901809;29;20198;-61
2021/03/21 04:48:19;;;;;;;52.33;25.33;;;7.00;99.90;;;;;;4916865;29;20197;-61
2021/03/21 04:50:48;;;;;;;58.37;26.90;;;7.00;99.90;;;;;;4916645;29;20661;-60
2021/03/21 04:53:24;;;;;;;62.17;27.33;;;7.00;99.90;;;;;;4922563;29;20205;-61
2021/03/21 04:55:58;;;;;;;59.60;27.97;;;7.10;99.90;;;;;;4920186;29;20220;-60
2021/03/21 04:58:32;;;;;;;56.90;26.13;;;7.10;99.90;;;;;;4919484;29;20217;-60
2021/03/21 05:01:09;;;;;;;61.73;27.57;;;7.10;99.90;;;;;;4931985;29;20243;-60
2021/03/21 05:03:41;;;;;;;57.57;26.73;;;7.10;99.90;;;;;;4917530;29;20546;-60
2021/03/21 05:06:16;;;;;;;58.27;26.87;;;7.20;99.90;;;;;;4914624;29;20197;-60
2021/03/21 05:08:54;;;;;;;59.00;27.50;;;7.10;99.90;;;;;;4922004;29;20200;-60
2021/03/21 05:11:23;;;;;;;62.97;27.33;;;7.20;99.90;;;;;;4913261;29;20276;-61
2021/03/21 05:13:59;;;;;;;63.13;27.83;;;7.10;99.90;;;;;;4912281;29;20314;-60
2021/03/21 05:16:33;;;;;;;61.83;27.03;;;7.20;99.90;;;;;;4918105;29;20571;-61
2021/03/21 05:19:11;;;;;;;55.50;26.90;;;7.20;99.90;;;;;;4913965;29;20209;-60
2021/03/21 05:21:43;;;;;;;58.97;27.30;;;7.20;99.90;;;;;;4910156;29;20288;-61
2021/03/21 05:24:20;;;;;;;60.70;28.87;;;7.20;99.90;;;;;;4916035;29;20232;-61
2021/03/21 05:26:55;;;;;;;63.93;28.53;;;7.30;99.90;;;;;;4913853;29;20288;-61
2021/03/21 05:29:39;;;;;;;62.73;28.20;;;7.30;99.90;;;;;;4874073;29;20206;-61
2021/03/21 05:32:08;;;;;;;54.03;27.23;;;7.30;99.90;;;;;;4882085;29;20251;-60
2021/03/21 05:34:37;;;;;;;57.30;28.40;;;7.40;99.90;;;;;;4874684;29;20223;-61
2021/03/21 05:37:16;;;;;;;59.57;28.43;;;7.40;99.90;;;;;;4873716;29;20203;-60
2021/03/21 05:39:52;;;;;;;59.80;28.27;;;7.40;99.90;;;;;;4873373;29;20229;-60
2021/03/21 05:42:57;;;;;;;62.13;28.03;;;7.40;99.90;;;;;;4872815;29;20201;-61
2021/03/21 05:46:02;;;;;;;56.83;29.27;;;7.40;99.90;;;;;;4873059;29;20648;-61
2021/03/21 05:49:09;;;;;;;58.10;28.00;;;7.40;99.90;;;;;;4869262;29;20623;-61
2021/03/21 05:52:08;;;;;;;55.20;28.40;;;7.40;99.90;;;;;;4817305;29;20355;-60
2021/03/21 05:55:15;;;;;;;56.33;27.97;;;7.50;99.90;;;;;;4867983;29;20218;-60
2021/03/21 05:58:22;;;;;;;55.23;27.87;;;7.50;99.90;;;;;;4874693;29;20622;-60
2021/03/21 06:01:16;;;;;;;57.60;28.50;;;7.60;99.90;;;;;;4869676;29;20263;-61
2021/03/21 06:04:13;;;;;;;55.53;28.33;;;7.50;99.90;;;;;;4876047;29;20333;-60
2021/03/21 06:07:24;;;;;;;61.53;29.77;;;7.50;99.90;;;;;;4877529;29;20206;-61
2021/03/21 06:10:06;;;;;;;59.47;28.47;;;7.50;99.90;;;;;;4857212;29;20242;-61
2021/03/21 06:12:47;;;;;;;57.80;27.30;;;7.50;99.90;;;;;;4878783;29;20278;-61
2021/03/21 06:15:42;;;;;;;55.87;28.53;;;7.50;99.90;;;;;;4872257;29;20309;-60
2021/03/21 06:18:48;;;;;;;54.37;28.60;;;7.60;99.90;;;;;;4876548;29;20199;-61
2021/03/21 06:21:48;;;;;;;60.70;29.00;;;7.60;99.90;;;;;;4857904;29;20704;-60
2021/03/21 06:24:49;;;;;;;57.50;29.53;;;7.60;99.90;;;;;;4890419;29;20281;-60
2021/03/21 06:27:49;;;;;;;57.27;28.80;;;7.60;99.90;;;;;;4878643;29;20275;-61
2021/03/21 06:30:49;;;;;;;61.53;28.93;;;7.50;99.90;;;;;;4914525;29;20707;-60
2021/03/21 06:33:25;;;;;;;58.50;28.53;;;7.60;99.90;;;;;;4905105;29;20247;-61
2021/03/21 06:36:05;;;;;;;60.37;29.93;;;7.70;99.90;;;;;;4920370;29;20284;-61
2021/03/21 06:39:13;;;;;;;63.63;29.13;;;7.70;99.90;;;;;;4916817;29;20652;-60
2021/03/21 06:42:06;;;;;;;65.10;29.83;;;7.70;99.90;;;;;;4894141;29;20209;-61
2021/03/21 06:45:03;;;;;;;61.43;28.37;;;7.70;99.90;;;;;;4914516;29;20201;-61
2021/03/21 06:47:54;;;;;;;60.73;28.80;;;7.60;99.90;;;;;;4914579;29;20745;-61
2021/03/21 06:50:49;;;;;;;55.43;28.23;;;7.60;99.90;;;;;;4916079;29;20201;-60
2021/03/21 06:53:24;;;;;;;54.20;27.80;;;7.70;99.90;;;;;;4913994;29;20205;-60
2021/03/21 06:55:55;;;;;;;53.97;26.90;;;7.60;99.90;;;;;;4918343;29;20312;-61
2021/03/21 06:59:07;;;;;;;50.03;24.97;;;7.60;99.90;;;;;;4915560;29;20984;-61
2021/03/21 07:01:58;;;;;;;51.10;24.57;;;7.70;99.90;;;;;;4913780;29;20232;-60
2021/03/21 07:05:04;;;;;;;50.30;23.40;;;7.80;99.90;;;;;;4915446;29;20740;-61
2021/03/21 07:08:05;;;;;;;40.73;20.03;;;7.80;99.90;;;;;;4911034;29;20330;-60
2021/03/21 07:11:01;;;;;;;37.77;20.97;;;7.90;99.90;;;;;;4913736;29;20194;-61
2021/03/21 07:14:02;;;;;;;35.73;19.67;;;7.80;99.90;;;;;;4911468;29;20229;-61
2021/03/21 07:17:11;;;;;;;38.20;20.63;;;7.80;99.90;;;;;;4917022;29;20292;-60
2021/03/21 07:20:18;;;;;;;39.10;19.63;;;7.80;99.90;;;;;;4920812;29;20202;-60
2021/03/21 07:23:35;;;;;;;32.70;18.20;;;7.80;99.90;;;;;;4911279;29;20205;-60
2021/03/21 07:26:42;;;;;;;34.83;19.30;;;7.90;99.90;;;;;;4915920;29;20186;-60
2021/03/21 07:29:30;;;;;;;29.53;15.77;;;7.80;99.90;;;;;;4911971;29;20303;-60
2021/03/21 07:32:43;;;;;;;25.97;15.57;;;7.80;99.90;;;;;;4903874;29;20265;-61
2021/03/21 07:35:44;;;;;;;25.23;14.33;;;7.80;99.90;;;;;;4904789;29;20228;-60
2021/03/21 07:38:35;;;;;;;18.87;12.80;;;7.90;99.90;;;;;;4882925;29;20224;-60
2021/03/21 07:41:11;;;;;;;16.87;10.77;;;7.90;99.90;;;;;;4913292;29;20202;-61
2021/03/21 07:44:07;;;;;;;20.70;9.97;;;7.80;99.90;;;;;;4912543;29;20200;-61
2021/03/21 07:46:51;;;;;;;15.30;8.83;;;7.90;99.90;;;;;;4915427;29;20255;-61
2021/03/21 07:49:40;;;;;;;10.03;6.07;;;7.90;99.90;;;;;;4913729;29;20204;-60
2021/03/21 07:52:47;;;;;;;12.77;6.23;;;7.90;99.90;;;;;;4922557;29;20296;-60
2021/03/21 07:55:19;;;;;;;10.00;7.23;;;7.80;99.90;;;;;;4906296;29;20233;-61
2021/03/21 07:57:59;;;;;;;16.87;8.37;;;7.80;99.90;;;;;;4917929;29;20237;-60
2021/03/21 08:00:26;;;;;;;14.73;7.73;;;7.90;99.90;;;;;;4915219;29;20629;-61
2021/03/21 08:03:15;;;;;;;12.43;7.90;;;8.00;99.90;;;;;;4913583;29;20241;-61
2021/03/21 08:05:43;;;;;;;15.30;8.10;;;8.20;99.90;;;;;;4911939;29;20208;-61
2021/03/21 08:08:14;;;;;;;11.03;6.77;;;8.40;99.90;;;;;;4913865;29;20228;-60
2021/03/21 08:10:44;;;;;;;9.37;6.47;;;8.60;99.90;;;;;;4916793;29;20202;-61
2021/03/21 08:13:17;;;;;;;13.17;6.87;;;8.70;99.90;;;;;;4914832;29;20284;-61
2021/03/21 08:15:45;;;;;;;11.97;5.40;;;9.00;99.90;;;;;;4919232;29;20244;-61
2021/03/21 08:18:18;;;;;;;7.87;4.87;;;9.10;99.90;;;;;;4912550;29;20288;-61
2021/03/21 08:20:50;;;;;;;8.20;4.77;;;9.10;99.90;;;;;;4915320;29;20213;-61
2021/03/21 08:23:22;;;;;;;4.80;3.70;;;9.00;99.90;;;;;;4915124;29;20238;-61
2021/03/21 08:25:51;;;;;;;5.47;3.03;;;9.00;99.90;;;;;;4909685;29;20190;-61
2021/03/21 08:28:22;;;;;;;9.67;4.00;;;8.90;99.90;;;;;;4910781;29;20241;-60
2021/03/21 08:30:52;;;;;;;6.73;3.70;;;9.00;99.90;;;;;;4918992;29;20284;-61
2021/03/21 08:33:27;;;;;;;6.33;3.43;;;8.90;99.90;;;;;;4920178;29;20200;-60
2021/03/21 08:36:09;;;;;;;4.70;3.30;;;8.90;99.90;;;;;;4913262;29;20248;-61
2021/03/21 08:38:37;;;;;;;7.37;3.27;;;8.90;99.90;;;;;;4916043;29;20812;-61
2021/03/21 08:41:07;;;;;;;7.10;2.90;;;8.90;99.90;;;;;;4912585;29;20245;-60
2021/03/21 08:43:37;;;;;;;6.53;3.17;;;8.90;99.90;;;;;;4914578;29;20209;-61
2021/03/21 08:46:14;;;;;;;7.60;2.90;;;8.80;99.90;;;;;;4913437;29;20665;-60
2021/03/21 08:48:44;;;;;;;9.07;3.53;;;8.80;99.90;;;;;;4914826;29;20222;-61
2021/03/21 08:51:29;;;;;;;6.47;3.60;;;8.80;99.90;;;;;;4914623;29;20201;-61
2021/03/21 08:54:02;;;;;;;10.83;3.50;;;8.80;99.90;;;;;;4911455;29;20295;-61
2021/03/21 08:56:31;;;;;;;8.07;2.73;;;8.70;99.90;;;;;;4911433;29;20710;-61
2021/03/21 08:59:22;;;;;;;9.80;3.30;;;8.80;99.90;;;;;;4925370;29;20194;-60
2021/03/21 09:02:02;;;;;;;10.57;2.93;;;8.80;99.90;;;;;;4913762;29;20283;-60
2021/03/21 09:04:33;;;;;;;7.63;2.83;;;9.00;99.90;;;;;;4905981;29;20201;-61
2021/03/21 09:07:24;;;;;;;10.60;2.80;;;9.10;99.90;;;;;;4914270;29;20280;-61
2021/03/21 09:10:19;;;;;;;8.63;3.03;;;9.10;99.90;;;;;;4913468;29;20212;-61
2021/03/21 09:12:49;;;;;;;14.33;2.63;;;9.20;99.90;;;;;;4913409;29;20691;-61
2021/03/21 09:15:32;;;;;;;6.50;2.70;;;9.10;99.90;;;;;;4915265;29;20241;-61
2021/03/21 09:18:22;;;;;;;8.30;2.40;;;9.00;99.90;;;;;;4909465;29;20209;-61
2021/03/21 09:21:17;;;;;;;8.20;2.43;;;9.00;99.90;;;;;;4908447;29;20217;-61
2021/03/21 09:24:07;;;;;;;8.77;2.27;;;9.10;99.90;;;;;;4912847;29;20197;-61
2021/03/21 09:26:38;;;;;;;4.10;1.97;;;9.10;99.90;;;;;;4911355;29;20284;-61
2021/03/21 09:29:19;;;;;;;4.97;2.53;;;9.30;99.90;;;;;;4917397;29;20233;-61
2021/03/21 09:31:48;;;;;;;8.83;2.73;;;9.40;99.90;;;;;;4915894;29;20237;-61
2021/03/21 09:34:23;;;;;;;6.80;2.50;;;9.50;99.90;;;;;;4918086;29;20193;-60
2021/03/21 09:36:58;;;;;;;10.20;2.23;;;9.50;99.90;;;;;;4910598;29;20585;-61
2021/03/21 09:39:32;;;;;;;6.60;2.10;;;9.50;99.90;;;;;;4908820;29;20193;-61
2021/03/21 09:42:01;;;;;;;6.50;2.40;;;9.30;99.90;;;;;;4910762;29;20198;-61
2021/03/21 09:44:37;;;;;;;6.33;2.20;;;9.20;99.90;;;;;;4913783;29;20697;-61
2021/03/21 09:47:19;;;;;;;8.17;2.43;;;9.20;99.90;;;;;;4912503;29;20304;-60
2021/03/21 09:49:51;;;;;;;8.27;2.40;;;9.10;99.90;;;;;;4916835;29;20252;-61
2021/03/21 09:52:29;;;;;;;8.90;2.50;;;9.20;99.90;;;;;;4913055;29;20308;-61
2021/03/21 09:55:06;;;;;;;7.03;2.13;;;9.20;99.90;;;;;;4909973;29;20316;-61
2021/03/21 09:58:03;;;;;;;12.17;2.60;;;9.30;99.90;;;;;;4909307;29;20209;-61
2021/03/21 10:00:36;;;;;;;6.23;2.30;;;9.30;99.90;;;;;;4908789;29;20546;-61
2021/03/21 10:03:05;;;;;;;12.73;2.73;;;9.40;99.90;;;;;;4911529;29;20284;-61
2021/03/21 10:05:39;;;;;;;12.60;2.60;;;9.40;99.90;;;;;;4910056;29;20194;-61
2021/03/21 10:08:16;;;;;;;10.77;2.57;;;9.40;99.90;;;;;;4912339;29;20218;-61
2021/03/21 10:10:52;;;;;;;3.10;1.87;;;9.20;99.90;;;;;;4923438;29;20206;-61
2021/03/21 10:13:31;;;;;;;10.67;2.23;;;9.10;99.90;;;;;;4909221;29;20276;-60
2021/03/21 10:16:20;;;;;;;8.90;2.33;;;9.10;99.90;;;;;;4908396;29;20244;-60
2021/03/21 10:18:49;;;;;;;12.53;2.30;;;9.10;99.90;;;;;;4907951;29;20213;-61
2021/03/21 10:21:39;;;;;;;8.07;2.50;;;9.30;99.90;;;;;;4915228;29;20347;-61
2021/03/21 10:24:36;;;;;;;9.57;2.50;;;9.40;99.90;;;;;;4921936;29;20201;-61
2021/03/21 10:27:36;;;;;;;4.57;2.10;;;9.30;99.90;;;;;;4917899;29;20197;-61
2021/03/21 10:30:30;;;;;;;10.10;2.50;;;9.20;99.90;;;;;;4915721;29;20194;-61
2021/03/21 10:33:31;;;;;;;9.77;2.33;;;9.20;99.90;;;;;;4908605;29;20197;-61
2021/03/21 10:35:59;;;;;;;14.00;2.50;;;9.30;99.90;;;;;;4904723;29;20210;-60
2021/03/21 10:38:49;;;;;;;11.33;2.60;;;9.40;99.90;;;;;;4920027;29;20295;-61
2021/03/21 10:41:56;;;;;;;9.03;2.50;;;9.70;99.90;;;;;;4913367;29;20284;-61
2021/03/21 10:44:57;;;;;;;13.63;2.37;;;10.00;99.90;;;;;;4911963;29;20264;-61
2021/03/21 10:47:50;;;;;;;6.07;2.20;;;10.10;99.90;;;;;;4921103;29;20315;-60
2021/03/21 10:51:03;;;;;;;5.73;1.97;;;10.20;99.90;;;;;;4923459;29;20205;-61
2021/03/21 10:53:34;;;;;;;8.53;2.70;;;10.20;99.90;;;;;;4918254;29;20312;-60
2021/03/21 10:56:08;;;;;;;11.97;2.40;;;10.00;99.90;;;;;;4918633;29;21542;-61
2021/03/21 10:58:54;;;;;;;8.70;2.43;;;10.10;99.90;;;;;;4920386;29;20259;-61
2021/03/21 11:01:35;;;;;;;10.50;2.37;;;10.20;99.90;;;;;;4926900;29;20210;-61
2021/03/21 11:04:28;;;;;;;8.20;1.80;;;10.00;99.90;;;;;;4919700;29;20212;-61
2021/03/21 11:07:04;;;;;;;11.10;2.30;;;10.00;99.90;;;;;;4914961;29;20194;-61
2021/03/21 11:09:33;;;;;;;10.60;2.33;;;10.20;99.90;;;;;;4917499;29;20209;-61
2021/03/21 11:12:06;;;;;;;5.07;2.40;;;10.50;99.90;;;;;;4911216;29;20748;-61
2021/03/21 11:14:37;;;;;;;9.70;2.37;;;10.90;99.90;;;;;;4914913;29;20212;-61
2021/03/21 11:17:18;;;;;;;13.70;2.83;;;11.30;99.90;;;;;;4926013;29;20209;-61
2021/03/21 11:19:47;;;;;;;11.47;2.60;;;11.40;99.90;;;;;;4920364;29;20217;-61
2021/03/21 11:22:26;;;;;;;11.50;3.10;;;11.20;99.90;;;;;;4912262;29;20712;-61
2021/03/21 11:24:54;;;;;;;14.17;2.80;;;11.00;99.90;;;;;;4930518;29;20327;-61
2021/03/21 11:27:27;;;;;;;9.63;2.60;;;10.80;99.90;;;;;;4932455;29;20766;-61
2021/03/21 11:30:13;;;;;;;10.37;2.47;;;10.70;99.90;;;;;;4926226;29;20304;-61
2021/03/21 11:32:41;;;;;;;15.10;2.60;;;10.70;99.90;;;;;;4928692;29;20208;-61
2021/03/21 11:35:15;;;;;;;12.20;3.13;;;10.90;99.90;;;;;;4911644;29;20288;-61
2021/03/21 11:37:44;;;;;;;20.00;3.17;;;10.90;99.90;;;;;;4897283;29;20230;-61
2021/03/21 11:40:18;;;;;;;17.60;3.53;;;11.10;99.90;;;;;;4896116;29;20330;-61
2021/03/21 11:42:48;;;;;;;14.30;3.37;;;11.10;99.90;;;;;;4893781;29;20704;-61
2021/03/21 11:45:37;;;;;;;10.30;2.67;;;11.20;99.90;;;;;;4906537;29;20233;-61
2021/03/21 11:48:22;;;;;;;13.30;2.83;;;11.20;99.90;;;;;;4892696;29;20241;-62
2021/03/21 11:50:54;;;;;;;23.17;4.07;;;11.10;99.90;;;;;;4895523;29;20194;-61
2021/03/21 11:53:23;;;;;;;9.33;3.13;;;10.80;99.90;;;;;;4895308;29;20692;-61
2021/03/21 11:55:55;;;;;;;12.30;3.03;;;10.60;99.90;;;;;;4885561;29;20297;-61
2021/03/21 11:58:27;;;;;;;13.40;3.20;;;10.60;99.90;;;;;;4893993;29;20292;-61
2021/03/21 12:01:00;;;;;;;16.20;3.23;;;10.60;99.90;;;;;;4895718;29;20194;-61
2021/03/21 12:03:29;;;;;;;15.00;3.37;;;10.60;99.90;;;;;;4900049;29;20744;-61
2021/03/21 12:06:21;;;;;;;15.17;3.53;;;10.50;99.90;;;;;;4897881;29;20224;-61
2021/03/21 12:08:49;;;;;;;19.40;3.47;;;10.40;99.90;;;;;;4892323;29;20233;-61
2021/03/21 12:11:27;;;;;;;21.00;3.47;;;10.40;99.90;;;;;;4892071;29;20289;-61
2021/03/21 12:13:55;;;;;;;16.77;3.30;;;10.50;99.90;;;;;;4896738;29;20230;-61
2021/03/21 12:16:36;;;;;;;18.10;3.83;;;10.50;99.90;;;;;;4895211;29;20463;-61
2021/03/21 12:19:07;;;;;;;21.90;3.93;;;10.40;99.90;;;;;;4891901;29;20198;-61
2021/03/21 12:21:38;;;;;;;17.77;4.03;;;10.40;99.90;;;;;;4893750;29;20566;-61
2021/03/21 12:24:12;;;;;;;21.90;3.70;;;10.50;99.90;;;;;;4889668;29;20302;-60
2021/03/21 12:26:55;;;;;;;16.37;3.93;;;10.40;99.90;;;;;;4897141;29;20261;-60
2021/03/21 12:29:42;;;;;;;19.07;4.40;;;10.20;99.90;;;;;;4880621;29;20198;-61
2021/03/21 12:32:33;;;;;;;12.57;2.70;;;10.20;99.90;;;;;;4877279;29;20579;-61
2021/03/21 12:35:01;;;;;;;16.27;3.67;;;10.50;99.90;;;;;;4887806;29;20238;-61
2021/03/21 12:37:42;;;;;;;16.67;3.73;;;10.60;99.90;;;;;;4877674;29;20203;-61
2021/03/21 12:40:13;;;;;;;14.17;3.37;;;10.60;99.90;;;;;;4877392;29;20233;-60
2021/03/21 12:42:43;;;;;;;13.70;3.43;;;10.40;99.90;;;;;;4885612;29;20241;-61
2021/03/21 12:45:19;;;;;;;15.60;2.97;;;10.60;99.90;;;;;;4876776;29;20274;-61
2021/03/21 12:47:58;;;;;;;14.07;3.23;;;10.70;99.90;;;;;;4878624;29;20262;-61
2021/03/21 12:50:45;;;;;;;14.13;3.90;;;10.80;99.90;;;;;;4877909;29;20206;-61
2021/03/21 12:53:21;;;;;;;10.60;3.07;;;10.80;99.90;;;;;;4872894;29;20754;-61
2021/03/21 12:55:52;;;;;;;13.13;3.63;;;11.00;99.90;;;;;;4875013;29;20230;-61
2021/03/21 12:58:20;;;;;;;16.73;3.60;;;11.00;99.90;;;;;;4872938;29;20199;-61
2021/03/21 13:00:48;;;;;;;14.27;3.47;;;11.00;99.90;;;;;;4878959;29;20738;-61
2021/03/21 13:03:27;;;;;;;14.23;3.67;;;11.00;99.90;;;;;;4872770;29;20207;-61
2021/03/21 13:05:56;;;;;;;19.50;4.40;;;11.10;99.90;;;;;;4867652;29;20310;-61
2021/03/21 13:08:24;;;;;;;15.07;3.50;;;10.80;99.90;;;;;;4880998;29;20742;-61
2021/03/21 13:10:52;;;;;;;17.13;3.47;;;10.50;99.90;;;;;;4880544;29;20749;-61
2021/03/21 13:13:21;;;;;;;18.67;4.27;;;10.70;99.90;;;;;;4873396;29;20202;-61
2021/03/21 13:15:48;;;;;;;15.90;3.57;;;10.90;99.90;;;;;;4871044;29;20211;-61
2021/03/21 13:18:19;;;;;;;17.53;3.73;;;11.20;99.90;;;;;;4874785;29;20741;-61
2021/03/21 13:20:48;;;;;;;14.33;3.40;;;11.40;99.90;;;;;;4876771;29;20213;-61
2021/03/21 13:23:16;;;;;;;12.03;3.23;;;11.40;99.90;;;;;;4875820;29;20543;-61
2021/03/21 13:25:44;;;;;;;15.10;3.73;;;11.60;99.90;;;;;;4877880;29;20231;-61
2021/03/21 13:28:12;;;;;;;15.57;3.60;;;11.80;99.90;;;;;;4898936;29;20255;-61
2021/03/21 13:30:42;;;;;;;19.27;3.80;;;12.00;99.90;;;;;;4918083;29;20293;-61
2021/03/21 13:33:13;;;;;;;16.07;3.90;;;12.20;99.90;;;;;;4910325;29;20292;-61
2021/03/21 13:35:41;;;;;;;19.37;3.30;;;12.30;99.90;;;;;;4911753;29;20209;-61
2021/03/21 13:38:09;;;;;;;17.87;3.70;;;12.20;99.90;;;;;;4931228;29;20197;-61